sensor_id;sensor_type;location;lat;lon;timestamp;P1;durP1;ratioP1;P2;durP2;ratioP2
9465;SDS011;4771;48.726;9.006;2023-08-17T00:00:51;10.55;;;5.78;;
9465;SDS011;4771;48.726;9.006;2023-08-17T00:03:19;7.70;;;6.07;;
9465;SDS011;4771;48.726;9.006;2023-08-17T00:05:46;8.50;;;5.95;;
9465;SDS011;4771;48.726;9.006;2023-08-17T00:08:13;6.28;;;5.15;;
9465;SDS011;4771;48.726;9.006;2023-08-17T00:10:40;7.18;;;5.63;;
9465;SDS011;4771;48.726;9.006;2023-08-17T00:13:07;6.57;;;5.88;;
9465;SDS011;4771;48.726;9.006;2023-08-17T00:15:34;7.18;;;5.70;;
9465;SDS011;4771;48.726;9.006;2023-08-17T00:18:01;7.93;;;5.38;;
9465;SDS011;4771;48.726;9.006;2023-08-17T00:20:29;7.18;;;5.78;;
9465;SDS011;4771;48.726;9.006;2023-08-17T00:22:56;8.13;;;5.75;;
9465;SDS011;4771;48.726;9.006;2023-08-17T00:25:23;9.52;;;6.35;;
9465;SDS011;4771;48.726;9.006;2023-08-17T00:27:50;10.07;;;6.25;;
9465;SDS011;4771;48.726;9.006;2023-08-17T00:30:17;6.43;;;5.80;;
9465;SDS011;4771;48.726;9.006;2023-08-17T00:32:44;7.18;;;6.13;;
9465;SDS011;4771;48.726;9.006;2023-08-17T00:35:11;7.03;;;5.65;;
9465;SDS011;4771;48.726;9.006;2023-08-17T00:37:39;11.40;;;5.80;;
9465;SDS011;4771;48.726;9.006;2023-08-17T00:40:07;7.75;;;5.72;;
9465;SDS011;4771;48.726;9.006;2023-08-17T00:42:34;5.78;;;5.10;;
9465;SDS011;4771;48.726;9.006;2023-08-17T00:45:01;8.85;;;5.68;;
9465;SDS011;4771;48.726;9.006;2023-08-17T00:47:28;7.45;;;5.75;;
9465;SDS011;4771;48.726;9.006;2023-08-17T00:49:55;8.05;;;5.78;;
9465;SDS011;4771;48.726;9.006;2023-08-17T00:52:24;6.75;;;5.35;;
9465;SDS011;4771;48.726;9.006;2023-08-17T00:54:52;9.10;;;6.20;;
9465;SDS011;4771;48.726;9.006;2023-08-17T00:57:20;6.57;;;5.88;;
9465;SDS011;4771;48.726;9.006;2023-08-17T00:59:47;7.45;;;5.72;;
9465;SDS011;4771;48.726;9.006;2023-08-17T01:02:14;9.52;;;5.68;;
9465;SDS011;4771;48.726;9.006;2023-08-17T01:04:42;8.95;;;6.00;;
9465;SDS011;4771;48.726;9.006;2023-08-17T01:07:09;10.05;;;6.22;;
9465;SDS011;4771;48.726;9.006;2023-08-17T01:09:36;10.30;;;5.80;;
9465;SDS011;4771;48.726;9.006;2023-08-17T01:12:05;7.63;;;5.50;;
9465;SDS011;4771;48.726;9.006;2023-08-17T01:14:43;7.47;;;5.00;;
9465;SDS011;4771;48.726;9.006;2023-08-17T01:17:17;7.10;;;5.38;;
9465;SDS011;4771;48.726;9.006;2023-08-17T01:19:48;10.00;;;5.57;;
9465;SDS011;4771;48.726;9.006;2023-08-17T01:22:17;10.60;;;5.80;;
9465;SDS011;4771;48.726;9.006;2023-08-17T01:24:48;6.03;;;5.43;;
9465;SDS011;4771;48.726;9.006;2023-08-17T01:27:15;7.75;;;5.30;;
9465;SDS011;4771;48.726;9.006;2023-08-17T01:29:42;6.28;;;5.68;;
9465;SDS011;4771;48.726;9.006;2023-08-17T01:32:09;6.57;;;5.50;;
9465;SDS011;4771;48.726;9.006;2023-08-17T01:34:44;6.50;;;5.30;;
9465;SDS011;4771;48.726;9.006;2023-08-17T01:37:15;10.93;;;5.72;;
9465;SDS011;4771;48.726;9.006;2023-08-17T01:39:49;6.68;;;5.30;;
9465;SDS011;4771;48.726;9.006;2023-08-17T01:42:18;6.43;;;5.78;;
9465;SDS011;4771;48.726;9.006;2023-08-17T01:44:46;8.68;;;5.60;;
9465;SDS011;4771;48.726;9.006;2023-08-17T01:47:13;7.45;;;5.57;;
9465;SDS011;4771;48.726;9.006;2023-08-17T01:49:40;6.00;;;5.40;;
9465;SDS011;4771;48.726;9.006;2023-08-17T01:52:07;9.77;;;6.00;;
9465;SDS011;4771;48.726;9.006;2023-08-17T01:54:34;9.82;;;5.20;;
9465;SDS011;4771;48.726;9.006;2023-08-17T01:57:02;6.20;;;5.60;;
9465;SDS011;4771;48.726;9.006;2023-08-17T01:59:29;6.53;;;5.60;;
9465;SDS011;4771;48.726;9.006;2023-08-17T02:01:56;8.48;;;5.22;;
9465;SDS011;4771;48.726;9.006;2023-08-17T02:04:23;6.00;;;5.20;;
9465;SDS011;4771;48.726;9.006;2023-08-17T02:06:50;7.18;;;5.55;;
9465;SDS011;4771;48.726;9.006;2023-08-17T02:09:17;6.63;;;4.97;;
9465;SDS011;4771;48.726;9.006;2023-08-17T02:11:44;8.70;;;5.45;;
9465;SDS011;4771;48.726;9.006;2023-08-17T02:14:12;9.23;;;5.32;;
9465;SDS011;4771;48.726;9.006;2023-08-17T02:16:39;7.65;;;5.20;;
9465;SDS011;4771;48.726;9.006;2023-08-17T02:19:06;8.18;;;5.10;;
9465;SDS011;4771;48.726;9.006;2023-08-17T02:21:33;11.25;;;5.72;;
9465;SDS011;4771;48.726;9.006;2023-08-17T02:24:00;9.25;;;5.70;;
9465;SDS011;4771;48.726;9.006;2023-08-17T02:26:26;7.18;;;5.40;;
9465;SDS011;4771;48.726;9.006;2023-08-17T02:28:52;7.07;;;5.25;;
9465;SDS011;4771;48.726;9.006;2023-08-17T02:31:21;7.40;;;5.13;;
9465;SDS011;4771;48.726;9.006;2023-08-17T02:33:48;6.97;;;5.60;;
9465;SDS011;4771;48.726;9.006;2023-08-17T02:36:14;8.80;;;5.82;;
9465;SDS011;4771;48.726;9.006;2023-08-17T02:38:41;8.50;;;5.80;;
9465;SDS011;4771;48.726;9.006;2023-08-17T02:41:08;6.47;;;5.70;;
9465;SDS011;4771;48.726;9.006;2023-08-17T02:43:35;11.55;;;6.40;;
9465;SDS011;4771;48.726;9.006;2023-08-17T02:46:02;8.55;;;5.93;;
9465;SDS011;4771;48.726;9.006;2023-08-17T02:48:33;10.70;;;7.07;;
9465;SDS011;4771;48.726;9.006;2023-08-17T02:51:00;10.45;;;7.28;;
9465;SDS011;4771;48.726;9.006;2023-08-17T02:53:27;11.57;;;7.22;;
9465;SDS011;4771;48.726;9.006;2023-08-17T02:55:54;11.95;;;8.68;;
9465;SDS011;4771;48.726;9.006;2023-08-17T02:58:21;13.50;;;8.48;;
9465;SDS011;4771;48.726;9.006;2023-08-17T03:00:48;15.27;;;9.38;;
9465;SDS011;4771;48.726;9.006;2023-08-17T03:03:17;20.98;;;9.98;;
9465;SDS011;4771;48.726;9.006;2023-08-17T03:05:45;17.20;;;10.35;;
9465;SDS011;4771;48.726;9.006;2023-08-17T03:08:12;16.23;;;10.18;;
9465;SDS011;4771;48.726;9.006;2023-08-17T03:10:39;16.77;;;9.77;;
9465;SDS011;4771;48.726;9.006;2023-08-17T03:13:06;15.80;;;10.73;;
9465;SDS011;4771;48.726;9.006;2023-08-17T03:15:33;16.50;;;10.35;;
9465;SDS011;4771;48.726;9.006;2023-08-17T03:18:04;18.17;;;10.88;;
9465;SDS011;4771;48.726;9.006;2023-08-17T03:20:31;15.15;;;10.40;;
9465;SDS011;4771;48.726;9.006;2023-08-17T03:23:00;18.60;;;11.05;;
9465;SDS011;4771;48.726;9.006;2023-08-17T03:25:27;16.08;;;11.45;;
9465;SDS011;4771;48.726;9.006;2023-08-17T03:27:53;19.35;;;12.40;;
9465;SDS011;4771;48.726;9.006;2023-08-17T03:30:20;13.88;;;10.75;;
9465;SDS011;4771;48.726;9.006;2023-08-17T03:32:47;14.52;;;11.73;;
9465;SDS011;4771;48.726;9.006;2023-08-17T03:35:14;15.20;;;12.07;;
9465;SDS011;4771;48.726;9.006;2023-08-17T03:37:41;18.15;;;12.93;;
9465;SDS011;4771;48.726;9.006;2023-08-17T03:40:09;15.48;;;12.18;;
9465;SDS011;4771;48.726;9.006;2023-08-17T03:42:36;18.35;;;13.20;;
9465;SDS011;4771;48.726;9.006;2023-08-17T03:45:04;16.27;;;13.75;;
9465;SDS011;4771;48.726;9.006;2023-08-17T03:47:31;18.17;;;12.80;;
9465;SDS011;4771;48.726;9.006;2023-08-17T03:49:58;18.73;;;13.07;;
9465;SDS011;4771;48.726;9.006;2023-08-17T03:52:25;17.75;;;12.05;;
9465;SDS011;4771;48.726;9.006;2023-08-17T03:54:52;14.65;;;12.30;;
9465;SDS011;4771;48.726;9.006;2023-08-17T03:57:20;17.20;;;13.00;;
9465;SDS011;4771;48.726;9.006;2023-08-17T03:59:47;16.88;;;12.95;;
9465;SDS011;4771;48.726;9.006;2023-08-17T04:02:14;15.32;;;12.70;;
9465;SDS011;4771;48.726;9.006;2023-08-17T04:04:41;18.02;;;13.23;;
9465;SDS011;4771;48.726;9.006;2023-08-17T04:07:07;18.55;;;13.73;;
9465;SDS011;4771;48.726;9.006;2023-08-17T04:09:34;16.20;;;12.93;;
9465;SDS011;4771;48.726;9.006;2023-08-17T04:12:04;15.20;;;13.27;;
9465;SDS011;4771;48.726;9.006;2023-08-17T04:14:33;15.32;;;12.95;;
9465;SDS011;4771;48.726;9.006;2023-08-17T04:17:00;18.25;;;14.10;;
9465;SDS011;4771;48.726;9.006;2023-08-17T04:19:26;17.15;;;12.77;;
9465;SDS011;4771;48.726;9.006;2023-08-17T04:21:53;15.88;;;14.13;;
9465;SDS011;4771;48.726;9.006;2023-08-17T04:24:20;16.05;;;14.00;;
9465;SDS011;4771;48.726;9.006;2023-08-17T04:26:49;15.25;;;13.25;;
9465;SDS011;4771;48.726;9.006;2023-08-17T04:29:16;15.38;;;13.52;;
9465;SDS011;4771;48.726;9.006;2023-08-17T04:31:44;18.33;;;13.98;;
9465;SDS011;4771;48.726;9.006;2023-08-17T04:34:11;14.60;;;12.48;;
9465;SDS011;4771;48.726;9.006;2023-08-17T04:36:38;15.57;;;13.55;;
9465;SDS011;4771;48.726;9.006;2023-08-17T04:39:05;15.73;;;12.90;;
9465;SDS011;4771;48.726;9.006;2023-08-17T04:41:33;16.67;;;14.48;;
9465;SDS011;4771;48.726;9.006;2023-08-17T04:44:00;20.20;;;14.52;;
9465;SDS011;4771;48.726;9.006;2023-08-17T04:46:26;19.77;;;13.77;;
9465;SDS011;4771;48.726;9.006;2023-08-17T04:48:55;17.98;;;14.50;;
9465;SDS011;4771;48.726;9.006;2023-08-17T04:51:26;17.30;;;13.80;;
9465;SDS011;4771;48.726;9.006;2023-08-17T04:53:53;16.05;;;13.95;;
9465;SDS011;4771;48.726;9.006;2023-08-17T04:56:20;17.70;;;14.68;;
9465;SDS011;4771;48.726;9.006;2023-08-17T04:58:47;21.60;;;14.63;;
9465;SDS011;4771;48.726;9.006;2023-08-17T05:01:14;19.42;;;15.38;;
9465;SDS011;4771;48.726;9.006;2023-08-17T05:03:41;19.50;;;13.75;;
9465;SDS011;4771;48.726;9.006;2023-08-17T05:06:09;17.65;;;14.45;;
9465;SDS011;4771;48.726;9.006;2023-08-17T05:08:36;17.83;;;13.50;;
9465;SDS011;4771;48.726;9.006;2023-08-17T05:11:02;17.15;;;14.30;;
9465;SDS011;4771;48.726;9.006;2023-08-17T05:13:29;15.23;;;12.57;;
9465;SDS011;4771;48.726;9.006;2023-08-17T05:15:56;18.52;;;14.00;;
9465;SDS011;4771;48.726;9.006;2023-08-17T05:18:23;18.88;;;14.27;;
9465;SDS011;4771;48.726;9.006;2023-08-17T05:20:50;16.25;;;13.85;;
9465;SDS011;4771;48.726;9.006;2023-08-17T05:23:18;18.20;;;14.30;;
9465;SDS011;4771;48.726;9.006;2023-08-17T05:25:45;19.42;;;14.30;;
9465;SDS011;4771;48.726;9.006;2023-08-17T05:28:13;20.50;;;15.65;;
9465;SDS011;4771;48.726;9.006;2023-08-17T05:30:40;18.88;;;15.55;;
9465;SDS011;4771;48.726;9.006;2023-08-17T05:33:07;19.50;;;14.90;;
9465;SDS011;4771;48.726;9.006;2023-08-17T05:35:34;21.25;;;15.15;;
9465;SDS011;4771;48.726;9.006;2023-08-17T05:38:01;16.85;;;14.68;;
9465;SDS011;4771;48.726;9.006;2023-08-17T05:40:30;18.20;;;15.10;;
9465;SDS011;4771;48.726;9.006;2023-08-17T05:42:57;18.25;;;14.52;;
9465;SDS011;4771;48.726;9.006;2023-08-17T05:45:24;21.23;;;15.85;;
9465;SDS011;4771;48.726;9.006;2023-08-17T05:47:51;17.60;;;15.02;;
9465;SDS011;4771;48.726;9.006;2023-08-17T05:50:18;19.95;;;16.10;;
9465;SDS011;4771;48.726;9.006;2023-08-17T05:52:45;18.77;;;15.45;;
9465;SDS011;4771;48.726;9.006;2023-08-17T05:55:12;19.20;;;14.77;;
9465;SDS011;4771;48.726;9.006;2023-08-17T05:57:41;18.42;;;15.25;;
9465;SDS011;4771;48.726;9.006;2023-08-17T06:00:08;17.25;;;14.55;;
9465;SDS011;4771;48.726;9.006;2023-08-17T06:02:37;18.58;;;15.00;;
9465;SDS011;4771;48.726;9.006;2023-08-17T06:05:04;14.55;;;12.95;;
9465;SDS011;4771;48.726;9.006;2023-08-17T06:07:32;15.18;;;12.80;;
9465;SDS011;4771;48.726;9.006;2023-08-17T06:09:59;27.20;;;14.88;;
9465;SDS011;4771;48.726;9.006;2023-08-17T06:12:26;19.77;;;15.85;;
9465;SDS011;4771;48.726;9.006;2023-08-17T06:14:54;18.63;;;14.90;;
9465;SDS011;4771;48.726;9.006;2023-08-17T06:17:21;20.30;;;15.77;;
9465;SDS011;4771;48.726;9.006;2023-08-17T06:19:48;19.70;;;16.05;;
9465;SDS011;4771;48.726;9.006;2023-08-17T06:22:15;21.50;;;16.63;;
9465;SDS011;4771;48.726;9.006;2023-08-17T06:24:42;21.25;;;16.52;;
9465;SDS011;4771;48.726;9.006;2023-08-17T06:27:09;24.02;;;17.05;;
9465;SDS011;4771;48.726;9.006;2023-08-17T06:29:37;22.20;;;17.08;;
9465;SDS011;4771;48.726;9.006;2023-08-17T06:32:06;23.27;;;17.02;;
9465;SDS011;4771;48.726;9.006;2023-08-17T06:34:33;20.90;;;16.25;;
9465;SDS011;4771;48.726;9.006;2023-08-17T06:37:01;23.33;;;16.77;;
9465;SDS011;4771;48.726;9.006;2023-08-17T06:39:30;25.08;;;17.73;;
9465;SDS011;4771;48.726;9.006;2023-08-17T06:41:57;20.73;;;16.73;;
9465;SDS011;4771;48.726;9.006;2023-08-17T06:44:24;21.35;;;17.02;;
9465;SDS011;4771;48.726;9.006;2023-08-17T06:46:51;22.83;;;16.85;;
9465;SDS011;4771;48.726;9.006;2023-08-17T06:49:19;25.73;;;16.35;;
9465;SDS011;4771;48.726;9.006;2023-08-17T06:51:46;21.58;;;16.98;;
9465;SDS011;4771;48.726;9.006;2023-08-17T06:54:13;21.17;;;15.77;;
9465;SDS011;4771;48.726;9.006;2023-08-17T06:56:40;19.27;;;14.38;;
9465;SDS011;4771;48.726;9.006;2023-08-17T06:59:07;20.33;;;15.68;;
9465;SDS011;4771;48.726;9.006;2023-08-17T07:01:34;20.98;;;15.60;;
9465;SDS011;4771;48.726;9.006;2023-08-17T07:04:01;21.08;;;15.25;;
9465;SDS011;4771;48.726;9.006;2023-08-17T07:06:29;18.13;;;14.45;;
9465;SDS011;4771;48.726;9.006;2023-08-17T07:08:56;17.63;;;14.02;;
9465;SDS011;4771;48.726;9.006;2023-08-17T07:11:24;15.95;;;13.27;;
9465;SDS011;4771;48.726;9.006;2023-08-17T07:13:51;19.08;;;13.35;;
9465;SDS011;4771;48.726;9.006;2023-08-17T07:16:18;16.58;;;13.93;;
9465;SDS011;4771;48.726;9.006;2023-08-17T07:18:45;16.27;;;13.45;;
9465;SDS011;4771;48.726;9.006;2023-08-17T07:21:12;16.90;;;14.40;;
9465;SDS011;4771;48.726;9.006;2023-08-17T07:23:44;15.38;;;13.52;;
9465;SDS011;4771;48.726;9.006;2023-08-17T07:26:12;19.45;;;14.00;;
9465;SDS011;4771;48.726;9.006;2023-08-17T07:28:39;17.73;;;14.40;;
9465;SDS011;4771;48.726;9.006;2023-08-17T07:31:06;17.73;;;13.23;;
9465;SDS011;4771;48.726;9.006;2023-08-17T07:33:32;18.50;;;14.27;;
9465;SDS011;4771;48.726;9.006;2023-08-17T07:35:59;16.25;;;13.57;;
9465;SDS011;4771;48.726;9.006;2023-08-17T07:38:26;20.50;;;15.05;;
9465;SDS011;4771;48.726;9.006;2023-08-17T07:40:55;18.38;;;14.52;;
9465;SDS011;4771;48.726;9.006;2023-08-17T07:43:23;17.13;;;13.65;;
9465;SDS011;4771;48.726;9.006;2023-08-17T07:45:53;16.33;;;13.40;;
9465;SDS011;4771;48.726;9.006;2023-08-17T07:48:21;18.02;;;13.40;;
9465;SDS011;4771;48.726;9.006;2023-08-17T07:50:48;17.23;;;14.52;;
9465;SDS011;4771;48.726;9.006;2023-08-17T07:53:16;17.65;;;14.35;;
9465;SDS011;4771;48.726;9.006;2023-08-17T07:55:43;19.67;;;14.98;;
9465;SDS011;4771;48.726;9.006;2023-08-17T07:58:11;15.82;;;14.15;;
9465;SDS011;4771;48.726;9.006;2023-08-17T08:00:38;16.58;;;14.27;;
9465;SDS011;4771;48.726;9.006;2023-08-17T08:03:05;18.30;;;13.45;;
9465;SDS011;4771;48.726;9.006;2023-08-17T08:05:32;17.92;;;13.27;;
9465;SDS011;4771;48.726;9.006;2023-08-17T08:07:59;15.75;;;12.55;;
9465;SDS011;4771;48.726;9.006;2023-08-17T08:10:26;15.10;;;12.90;;
9465;SDS011;4771;48.726;9.006;2023-08-17T08:12:53;15.10;;;12.95;;
9465;SDS011;4771;48.726;9.006;2023-08-17T08:15:22;14.02;;;12.60;;
9465;SDS011;4771;48.726;9.006;2023-08-17T08:17:51;16.27;;;12.00;;
9465;SDS011;4771;48.726;9.006;2023-08-17T08:20:19;14.75;;;11.27;;
9465;SDS011;4771;48.726;9.006;2023-08-17T08:22:47;14.27;;;11.68;;
9465;SDS011;4771;48.726;9.006;2023-08-17T08:25:14;14.02;;;11.18;;
9465;SDS011;4771;48.726;9.006;2023-08-17T08:27:40;14.15;;;10.98;;
9465;SDS011;4771;48.726;9.006;2023-08-17T08:30:07;14.38;;;10.10;;
9465;SDS011;4771;48.726;9.006;2023-08-17T08:32:36;11.20;;;9.52;;
9465;SDS011;4771;48.726;9.006;2023-08-17T08:35:03;11.38;;;10.18;;
9465;SDS011;4771;48.726;9.006;2023-08-17T08:37:31;14.48;;;10.27;;
9465;SDS011;4771;48.726;9.006;2023-08-17T08:39:58;11.93;;;9.25;;
9465;SDS011;4771;48.726;9.006;2023-08-17T08:42:25;11.88;;;9.15;;
9465;SDS011;4771;48.726;9.006;2023-08-17T08:44:52;10.90;;;8.55;;
9465;SDS011;4771;48.726;9.006;2023-08-17T08:47:19;9.93;;;8.43;;
9465;SDS011;4771;48.726;9.006;2023-08-17T08:49:53;11.70;;;9.02;;
9465;SDS011;4771;48.726;9.006;2023-08-17T08:52:28;12.15;;;8.88;;
9465;SDS011;4771;48.726;9.006;2023-08-17T08:55:01;12.63;;;10.30;;
9465;SDS011;4771;48.726;9.006;2023-08-17T08:57:33;11.95;;;9.52;;
9465;SDS011;4771;48.726;9.006;2023-08-17T09:00:00;11.30;;;10.02;;
9465;SDS011;4771;48.726;9.006;2023-08-17T09:02:28;11.82;;;10.00;;
9465;SDS011;4771;48.726;9.006;2023-08-17T09:04:58;13.40;;;9.80;;
9465;SDS011;4771;48.726;9.006;2023-08-17T09:07:26;10.95;;;8.85;;
9465;SDS011;4771;48.726;9.006;2023-08-17T09:09:55;10.02;;;8.75;;
9465;SDS011;4771;48.726;9.006;2023-08-17T09:12:22;11.38;;;10.20;;
9465;SDS011;4771;48.726;9.006;2023-08-17T09:14:49;11.80;;;9.40;;
9465;SDS011;4771;48.726;9.006;2023-08-17T09:17:22;11.15;;;8.38;;
9465;SDS011;4771;48.726;9.006;2023-08-17T09:19:50;12.85;;;7.97;;
9465;SDS011;4771;48.726;9.006;2023-08-17T09:22:22;9.57;;;8.57;;
9465;SDS011;4771;48.726;9.006;2023-08-17T09:24:50;12.00;;;8.43;;
9465;SDS011;4771;48.726;9.006;2023-08-17T09:27:17;9.98;;;8.60;;
9465;SDS011;4771;48.726;9.006;2023-08-17T09:29:44;7.32;;;6.38;;
9465;SDS011;4771;48.726;9.006;2023-08-17T09:32:14;8.48;;;7.00;;
9465;SDS011;4771;48.726;9.006;2023-08-17T09:34:41;8.48;;;7.40;;
9465;SDS011;4771;48.726;9.006;2023-08-17T09:37:08;10.00;;;7.78;;
9465;SDS011;4771;48.726;9.006;2023-08-17T09:39:39;10.85;;;7.47;;
9465;SDS011;4771;48.726;9.006;2023-08-17T09:42:06;8.48;;;6.35;;
9465;SDS011;4771;48.726;9.006;2023-08-17T09:44:33;6.40;;;5.78;;
9465;SDS011;4771;48.726;9.006;2023-08-17T09:47:01;10.52;;;5.55;;
9465;SDS011;4771;48.726;9.006;2023-08-17T09:49:30;8.10;;;6.80;;
9465;SDS011;4771;48.726;9.006;2023-08-17T09:51:59;7.78;;;5.65;;
9465;SDS011;4771;48.726;9.006;2023-08-17T09:54:26;7.80;;;6.43;;
9465;SDS011;4771;48.726;9.006;2023-08-17T09:56:56;6.85;;;5.90;;
9465;SDS011;4771;48.726;9.006;2023-08-17T09:59:24;6.78;;;6.15;;
9465;SDS011;4771;48.726;9.006;2023-08-17T10:01:51;6.53;;;5.40;;
9465;SDS011;4771;48.726;9.006;2023-08-17T10:04:20;6.20;;;5.18;;
9465;SDS011;4771;48.726;9.006;2023-08-17T10:06:48;6.38;;;5.65;;
9465;SDS011;4771;48.726;9.006;2023-08-17T10:09:21;6.13;;;5.53;;
9465;SDS011;4771;48.726;9.006;2023-08-17T10:11:51;8.15;;;6.03;;
9465;SDS011;4771;48.726;9.006;2023-08-17T10:14:23;5.78;;;5.28;;
9465;SDS011;4771;48.726;9.006;2023-08-17T10:16:57;6.35;;;5.38;;
9465;SDS011;4771;48.726;9.006;2023-08-17T10:19:33;12.43;;;11.18;;
9465;SDS011;4771;48.726;9.006;2023-08-17T10:22:09;6.60;;;5.28;;
9465;SDS011;4771;48.726;9.006;2023-08-17T10:24:41;5.22;;;4.57;;
9465;SDS011;4771;48.726;9.006;2023-08-17T10:27:10;7.57;;;5.10;;
9465;SDS011;4771;48.726;9.006;2023-08-17T10:29:41;6.10;;;5.50;;
9465;SDS011;4771;48.726;9.006;2023-08-17T10:32:09;6.28;;;4.97;;
9465;SDS011;4771;48.726;9.006;2023-08-17T10:34:37;7.32;;;4.72;;
9465;SDS011;4771;48.726;9.006;2023-08-17T10:37:05;5.38;;;4.88;;
9465;SDS011;4771;48.726;9.006;2023-08-17T10:39:33;5.15;;;4.50;;
9465;SDS011;4771;48.726;9.006;2023-08-17T10:42:02;5.95;;;4.30;;
9465;SDS011;4771;48.726;9.006;2023-08-17T10:44:37;4.45;;;4.05;;
9465;SDS011;4771;48.726;9.006;2023-08-17T10:47:25;5.57;;;4.60;;
9465;SDS011;4771;48.726;9.006;2023-08-17T10:49:55;4.45;;;4.05;;
9465;SDS011;4771;48.726;9.006;2023-08-17T10:52:26;4.57;;;4.10;;
9465;SDS011;4771;48.726;9.006;2023-08-17T10:54:55;5.45;;;4.25;;
9465;SDS011;4771;48.726;9.006;2023-08-17T10:57:29;4.63;;;4.20;;
9465;SDS011;4771;48.726;9.006;2023-08-17T11:02:53;5.85;;;4.05;;
9465;SDS011;4771;48.726;9.006;2023-08-17T11:05:37;5.35;;;4.20;;
9465;SDS011;4771;48.726;9.006;2023-08-17T11:08:05;5.07;;;4.45;;
9465;SDS011;4771;48.726;9.006;2023-08-17T11:10:34;4.93;;;4.20;;
9465;SDS011;4771;48.726;9.006;2023-08-17T11:13:01;4.00;;;3.60;;
9465;SDS011;4771;48.726;9.006;2023-08-17T11:15:35;6.25;;;4.22;;
9465;SDS011;4771;48.726;9.006;2023-08-17T11:18:08;5.32;;;3.67;;
9465;SDS011;4771;48.726;9.006;2023-08-17T11:20:37;4.20;;;3.60;;
9465;SDS011;4771;48.726;9.006;2023-08-17T11:23:05;6.97;;;5.55;;
9465;SDS011;4771;48.726;9.006;2023-08-17T11:25:32;8.05;;;5.25;;
9465;SDS011;4771;48.726;9.006;2023-08-17T11:28:00;4.43;;;4.03;;
9465;SDS011;4771;48.726;9.006;2023-08-17T11:30:28;6.53;;;5.45;;
9465;SDS011;4771;48.726;9.006;2023-08-17T11:32:55;5.32;;;4.53;;
9465;SDS011;4771;48.726;9.006;2023-08-17T11:35:24;5.28;;;4.20;;
9465;SDS011;4771;48.726;9.006;2023-08-17T11:37:51;5.72;;;3.90;;
9465;SDS011;4771;48.726;9.006;2023-08-17T11:40:18;5.43;;;4.88;;
9465;SDS011;4771;48.726;9.006;2023-08-17T11:42:45;5.40;;;4.22;;
9465;SDS011;4771;48.726;9.006;2023-08-17T11:45:13;7.63;;;5.30;;
9465;SDS011;4771;48.726;9.006;2023-08-17T11:47:40;4.60;;;4.18;;
9465;SDS011;4771;48.726;9.006;2023-08-17T11:50:09;4.70;;;4.30;;
9465;SDS011;4771;48.726;9.006;2023-08-17T11:52:38;6.32;;;4.70;;
9465;SDS011;4771;48.726;9.006;2023-08-17T11:55:05;4.30;;;3.90;;
9465;SDS011;4771;48.726;9.006;2023-08-17T11:57:34;6.43;;;5.47;;
9465;SDS011;4771;48.726;9.006;2023-08-17T12:00:03;8.30;;;5.85;;
9465;SDS011;4771;48.726;9.006;2023-08-17T12:02:32;4.78;;;4.28;;
9465;SDS011;4771;48.726;9.006;2023-08-17T12:05:03;6.05;;;5.30;;
9465;SDS011;4771;48.726;9.006;2023-08-17T12:07:31;7.38;;;4.70;;
9465;SDS011;4771;48.726;9.006;2023-08-17T12:09:59;11.02;;;8.85;;
9465;SDS011;4771;48.726;9.006;2023-08-17T12:12:29;5.05;;;4.55;;
9465;SDS011;4771;48.726;9.006;2023-08-17T12:14:57;5.40;;;4.40;;
9465;SDS011;4771;48.726;9.006;2023-08-17T12:17:24;4.95;;;4.13;;
9465;SDS011;4771;48.726;9.006;2023-08-17T12:19:53;6.43;;;5.07;;
9465;SDS011;4771;48.726;9.006;2023-08-17T12:22:23;12.68;;;11.45;;
9465;SDS011;4771;48.726;9.006;2023-08-17T12:24:51;12.27;;;9.38;;
9465;SDS011;4771;48.726;9.006;2023-08-17T12:27:19;5.75;;;5.22;;
9465;SDS011;4771;48.726;9.006;2023-08-17T12:29:49;4.50;;;4.10;;
9465;SDS011;4771;48.726;9.006;2023-08-17T12:32:17;4.10;;;3.70;;
9465;SDS011;4771;48.726;9.006;2023-08-17T12:34:51;5.82;;;4.65;;
9465;SDS011;4771;48.726;9.006;2023-08-17T12:37:20;6.13;;;4.72;;
9465;SDS011;4771;48.726;9.006;2023-08-17T12:39:47;9.60;;;4.88;;
9465;SDS011;4771;48.726;9.006;2023-08-17T12:42:14;6.43;;;5.07;;
9465;SDS011;4771;48.726;9.006;2023-08-17T12:44:44;6.82;;;4.47;;
9465;SDS011;4771;48.726;9.006;2023-08-17T12:47:11;5.72;;;4.57;;
9465;SDS011;4771;48.726;9.006;2023-08-17T12:49:38;6.97;;;4.90;;
9465;SDS011;4771;48.726;9.006;2023-08-17T12:52:05;7.45;;;5.72;;
9465;SDS011;4771;48.726;9.006;2023-08-17T12:54:32;8.57;;;6.00;;
9465;SDS011;4771;48.726;9.006;2023-08-17T12:56:59;7.43;;;6.47;;
9465;SDS011;4771;48.726;9.006;2023-08-17T12:59:27;17.67;;;6.75;;
9465;SDS011;4771;48.726;9.006;2023-08-17T13:01:56;12.35;;;7.28;;
9465;SDS011;4771;48.726;9.006;2023-08-17T13:04:23;9.93;;;5.97;;
9465;SDS011;4771;48.726;9.006;2023-08-17T13:06:50;9.10;;;5.38;;
9465;SDS011;4771;48.726;9.006;2023-08-17T13:09:17;7.72;;;4.75;;
9465;SDS011;4771;48.726;9.006;2023-08-17T13:11:44;7.13;;;4.30;;
9465;SDS011;4771;48.726;9.006;2023-08-17T13:14:11;11.05;;;4.60;;
9465;SDS011;4771;48.726;9.006;2023-08-17T13:16:38;9.95;;;4.75;;
9465;SDS011;4771;48.726;9.006;2023-08-17T13:19:06;8.18;;;4.65;;
9465;SDS011;4771;48.726;9.006;2023-08-17T13:21:33;7.05;;;4.68;;
9465;SDS011;4771;48.726;9.006;2023-08-17T13:24:00;8.02;;;4.32;;
9465;SDS011;4771;48.726;9.006;2023-08-17T13:26:28;10.55;;;5.80;;
9465;SDS011;4771;48.726;9.006;2023-08-17T13:28:55;11.82;;;5.88;;
9465;SDS011;4771;48.726;9.006;2023-08-17T13:31:22;8.25;;;5.70;;
9465;SDS011;4771;48.726;9.006;2023-08-17T13:33:49;10.98;;;6.63;;
9465;SDS011;4771;48.726;9.006;2023-08-17T13:36:17;11.30;;;7.15;;
9465;SDS011;4771;48.726;9.006;2023-08-17T13:38:44;11.48;;;7.85;;
9465;SDS011;4771;48.726;9.006;2023-08-17T13:41:11;11.18;;;7.78;;
9465;SDS011;4771;48.726;9.006;2023-08-17T13:43:38;9.18;;;8.07;;
9465;SDS011;4771;48.726;9.006;2023-08-17T13:46:05;8.68;;;7.13;;
9465;SDS011;4771;48.726;9.006;2023-08-17T13:48:32;9.98;;;7.80;;
9465;SDS011;4771;48.726;9.006;2023-08-17T13:50:59;9.63;;;8.50;;
9465;SDS011;4771;48.726;9.006;2023-08-17T13:53:27;11.20;;;8.27;;
9465;SDS011;4771;48.726;9.006;2023-08-17T13:55:54;8.38;;;7.55;;
9465;SDS011;4771;48.726;9.006;2023-08-17T13:58:21;11.38;;;8.50;;
9465;SDS011;4771;48.726;9.006;2023-08-17T14:00:48;10.20;;;9.00;;
9465;SDS011;4771;48.726;9.006;2023-08-17T14:03:15;10.93;;;9.65;;
9465;SDS011;4771;48.726;9.006;2023-08-17T14:05:42;11.27;;;9.57;;
9465;SDS011;4771;48.726;9.006;2023-08-17T14:08:09;12.48;;;9.93;;
9465;SDS011;4771;48.726;9.006;2023-08-17T14:10:38;10.43;;;9.10;;
9465;SDS011;4771;48.726;9.006;2023-08-17T14:13:05;13.95;;;9.82;;
9465;SDS011;4771;48.726;9.006;2023-08-17T14:15:32;12.13;;;10.82;;
9465;SDS011;4771;48.726;9.006;2023-08-17T14:17:59;11.98;;;10.32;;
9465;SDS011;4771;48.726;9.006;2023-08-17T14:20:26;12.57;;;10.95;;
9465;SDS011;4771;48.726;9.006;2023-08-17T14:22:53;12.43;;;11.13;;
9465;SDS011;4771;48.726;9.006;2023-08-17T14:25:20;11.90;;;10.75;;
9465;SDS011;4771;48.726;9.006;2023-08-17T14:27:49;13.13;;;11.07;;
9465;SDS011;4771;48.726;9.006;2023-08-17T14:30:16;12.82;;;11.55;;
9465;SDS011;4771;48.726;9.006;2023-08-17T14:32:43;12.85;;;10.52;;
9465;SDS011;4771;48.726;9.006;2023-08-17T14:35:10;13.43;;;10.88;;
9465;SDS011;4771;48.726;9.006;2023-08-17T14:37:36;11.73;;;10.55;;
9465;SDS011;4771;48.726;9.006;2023-08-17T14:40:04;12.15;;;10.88;;
9465;SDS011;4771;48.726;9.006;2023-08-17T14:42:31;11.65;;;10.50;;
9465;SDS011;4771;48.726;9.006;2023-08-17T14:45:00;10.27;;;9.18;;
9465;SDS011;4771;48.726;9.006;2023-08-17T14:47:27;10.52;;;9.52;;
9465;SDS011;4771;48.726;9.006;2023-08-17T14:49:54;10.77;;;9.68;;
9465;SDS011;4771;48.726;9.006;2023-08-17T14:52:21;10.07;;;8.20;;
9465;SDS011;4771;48.726;9.006;2023-08-17T14:54:48;9.13;;;8.32;;
9465;SDS011;4771;48.726;9.006;2023-08-17T14:57:15;9.23;;;8.32;;
9465;SDS011;4771;48.726;9.006;2023-08-17T14:59:42;10.10;;;8.88;;
9465;SDS011;4771;48.726;9.006;2023-08-17T15:02:10;13.00;;;8.93;;
9465;SDS011;4771;48.726;9.006;2023-08-17T15:04:38;10.10;;;8.82;;
9465;SDS011;4771;48.726;9.006;2023-08-17T15:07:05;9.50;;;8.60;;
9465;SDS011;4771;48.726;9.006;2023-08-17T15:09:35;9.18;;;8.18;;